Time;durP1;ratioP1;P1;durP2;ratioP2;P2;SDS_P1;SDS_P2;PMS_P1;PMS_P2;Temp;Humidity;BMP_temperature;BMP_pressure;BME280_temperature;BME280_humidity;BME280_pressure;Samples;Min_cycle;Max_cycle;Signal;HPM_P1;HPM_P2
2023/07/07 00:00:30;;;;;;;7.20;3.73;;;;;;;;;;5014901;28;20548;-72
2023/07/07 00:03:34;;;;;;;5.37;3.97;;;;;;;;;;5013944;28;20233;-73
2023/07/07 00:06:39;;;;;;;7.70;3.80;;;;;;;;;;5002181;28;20197;-73
2023/07/07 00:09:43;;;;;;;4.77;3.87;;;;;;;;;;5013687;28;20201;-73
2023/07/07 00:12:47;;;;;;;5.80;3.70;;;;;;;;;;5013655;28;20560;-73
2023/07/07 00:15:58;;;;;;;4.40;3.60;;;;;;;;;;5014158;28;20177;-73
2023/07/07 00:19:02;;;;;;;6.50;3.70;;;;;;;;;;5013580;28;20174;-73
2023/07/07 00:22:06;;;;;;;6.07;3.93;;;;;;;;;;5014118;28;20573;-73
2023/07/07 00:25:10;;;;;;;6.30;3.80;;;;;;;;;;5013360;28;20181;-73
2023/07/07 00:28:14;;;;;;;5.37;3.67;;;;;;;;;;5013961;28;20201;-73
2023/07/07 00:31:20;;;;;;;6.83;3.40;;;;;;;;;;5013297;28;20190;-73
2023/07/07 00:34:27;;;;;;;8.27;4.07;;;;;;;;;;5014132;28;20177;-72
2023/07/07 00:37:31;;;;;;;5.60;4.30;;;;;;;;;;5013870;28;20181;-73
2023/07/07 00:40:35;;;;;;;4.17;3.30;;;;;;;;;;5013504;28;20181;-73
2023/07/07 00:43:39;;;;;;;6.43;4.60;;;;;;;;;;5001778;28;20221;-73
2023/07/07 00:46:43;;;;;;;5.57;4.13;;;;;;;;;;5000703;28;20668;-73
2023/07/07 00:49:47;;;;;;;7.30;4.17;;;;;;;;;;5001802;28;20656;-73
2023/07/07 00:52:52;;;;;;;10.37;4.00;;;;;;;;;;5013477;28;20218;-73
2023/07/07 00:56:03;;;;;;;6.43;3.87;;;;;;;;;;5013818;28;20194;-73
2023/07/07 00:59:12;;;;;;;7.17;3.17;;;;;;;;;;5013782;28;20182;-73
2023/07/07 01:02:24;;;;;;;9.07;4.60;;;;;;;;;;5012797;28;20561;-73
2023/07/07 01:05:31;;;;;;;7.77;3.67;;;;;;;;;;5001541;28;20189;-73
2023/07/07 01:08:39;;;;;;;7.63;3.93;;;;;;;;;;5013123;28;20205;-72
2023/07/07 01:11:46;;;;;;;5.93;4.17;;;;;;;;;;5001376;28;20228;-73
2023/07/07 01:14:51;;;;;;;6.17;4.30;;;;;;;;;;5013311;28;20533;-72
2023/07/07 01:18:28;;;;;;;6.33;4.23;;;;;;;;;;5013260;28;20197;-72
2023/07/07 01:21:44;;;;;;;6.53;4.23;;;;;;;;;;5012401;28;20707;-72
2023/07/07 01:25:39;;;;;;;4.63;3.93;;;;;;;;;;5012475;28;20173;-72
2023/07/07 01:28:53;;;;;;;7.73;4.47;;;;;;;;;;4984989;28;20660;-72
2023/07/07 01:32:02;;;;;;;6.87;3.90;;;;;;;;;;5013312;28;20213;-72
2023/07/07 01:35:15;;;;;;;7.33;4.17;;;;;;;;;;5012956;28;20182;-72
2023/07/07 01:38:38;;;;;;;6.10;4.07;;;;;;;;;;5013666;28;20182;-72
2023/07/07 01:41:55;;;;;;;7.30;4.50;;;;;;;;;;5012483;28;20688;-72
2023/07/07 01:45:11;;;;;;;7.17;3.93;;;;;;;;;;5013356;28;20178;-72
2023/07/07 01:48:30;;;;;;;5.67;4.10;;;;;;;;;;5012476;28;20178;-72
2023/07/07 01:51:42;;;;;;;5.23;3.87;;;;;;;;;;5012229;28;20217;-73
2023/07/07 01:54:56;;;;;;;6.43;4.17;;;;;;;;;;5012960;28;20173;-72
2023/07/07 01:58:05;;;;;;;7.10;4.37;;;;;;;;;;5014294;28;20181;-72
2023/07/07 02:01:10;;;;;;;6.33;4.37;;;;;;;;;;5004884;28;20181;-72
2023/07/07 02:04:14;;;;;;;5.77;3.97;;;;;;;;;;5016513;28;20209;-72
2023/07/07 02:07:19;;;;;;;6.37;4.70;;;;;;;;;;5005484;28;20637;-73
2023/07/07 02:10:23;;;;;;;8.37;4.60;;;;;;;;;;5015962;28;20178;-73
2023/07/07 02:13:27;;;;;;;8.40;4.70;;;;;;;;;;5016357;28;20553;-73
2023/07/07 02:16:32;;;;;;;6.37;5.00;;;;;;;;;;5015792;28;20201;-73
2023/07/07 02:19:37;;;;;;;6.23;4.43;;;;;;;;;;5004524;28;20194;-73
2023/07/07 02:22:41;;;;;;;6.63;4.47;;;;;;;;;;5016241;28;20217;-73
2023/07/07 02:25:45;;;;;;;7.53;4.30;;;;;;;;;;5004435;28;20181;-73
2023/07/07 02:28:49;;;;;;;5.33;4.20;;;;;;;;;;5016136;28;20181;-73
2023/07/07 02:31:53;;;;;;;7.47;4.30;;;;;;;;;;5015457;28;20225;-72
2023/07/07 02:35:01;;;;;;;6.27;4.67;;;;;;;;;;5016529;28;20537;-72
2023/07/07 02:38:05;;;;;;;6.30;4.50;;;;;;;;;;5016771;28;20182;-72
2023/07/07 02:41:10;;;;;;;5.77;3.70;;;;;;;;;;5015722;28;20186;-72
2023/07/07 02:44:15;;;;;;;8.10;4.53;;;;;;;;;;5016307;28;20216;-72
2023/07/07 02:47:19;;;;;;;6.17;4.10;;;;;;;;;;5015252;28;20197;-72
2023/07/07 02:50:23;;;;;;;6.10;4.20;;;;;;;;;;5015700;28;20198;-72
2023/07/07 02:53:30;;;;;;;6.87;4.53;;;;;;;;;;5003642;28;20205;-72
2023/07/07 02:56:34;;;;;;;8.10;4.17;;;;;;;;;;5004128;28;20505;-72
2023/07/07 02:59:38;;;;;;;7.10;4.90;;;;;;;;;;5015679;28;20557;-72
2023/07/07 03:02:43;;;;;;;8.30;4.73;;;;;;;;;;5015015;28;20217;-72
2023/07/07 03:05:47;;;;;;;6.43;4.60;;;;;;;;;;5003445;28;20186;-72
2023/07/07 03:08:52;;;;;;;6.63;4.67;;;;;;;;;;5014261;28;20181;-72
2023/07/07 03:11:57;;;;;;;5.57;4.37;;;;;;;;;;5003396;28;20221;-72
2023/07/07 03:15:04;;;;;;;6.00;4.53;;;;;;;;;;5014777;28;20178;-72
2023/07/07 03:18:14;;;;;;;5.33;4.27;;;;;;;;;;5004014;28;20186;-72
2023/07/07 03:21:21;;;;;;;6.90;4.67;;;;;;;;;;5017537;22;20241;-73
2023/07/07 03:24:31;;;;;;;6.40;4.30;;;;;;;;;;5003575;28;20213;-73
2023/07/07 03:27:37;;;;;;;7.30;5.07;;;;;;;;;;5014796;28;20182;-73
2023/07/07 03:30:41;;;;;;;6.87;4.97;;;;;;;;;;5014771;28;20181;-73
2023/07/07 03:33:55;;;;;;;7.10;4.37;;;;;;;;;;5014411;28;20181;-73
2023/07/07 03:37:00;;;;;;;7.90;4.27;;;;;;;;;;5014568;28;20205;-73
2023/07/07 03:40:06;;;;;;;6.73;4.07;;;;;;;;;;5003428;28;20178;-73
2023/07/07 03:43:11;;;;;;;8.03;4.87;;;;;;;;;;5014788;28;20259;-73
2023/07/07 03:46:17;;;;;;;7.30;4.57;;;;;;;;;;5014302;28;20197;-73
2023/07/07 03:49:21;;;;;;;8.17;4.67;;;;;;;;;;5014119;28;20181;-74
2023/07/07 03:52:25;;;;;;;6.87;4.73;;;;;;;;;;5003267;28;20224;-73
2023/07/07 03:55:30;;;;;;;6.73;4.67;;;;;;;;;;5014882;28;20207;-72
2023/07/07 03:58:34;;;;;;;8.50;4.33;;;;;;;;;;5013888;28;20186;-72
2023/07/07 04:01:38;;;;;;;11.27;5.07;;;;;;;;;;5014169;28;20221;-72
2023/07/07 04:04:42;;;;;;;7.27;4.83;;;;;;;;;;5002658;28;20220;-73
2023/07/07 04:07:46;;;;;;;7.73;4.70;;;;;;;;;;5013668;28;20533;-72
2023/07/07 04:11:00;;;;;;;6.83;4.93;;;;;;;;;;5014977;28;20190;-73
2023/07/07 04:14:04;;;;;;;7.07;4.80;;;;;;;;;;5013818;28;20186;-73
2023/07/07 04:17:08;;;;;;;7.43;4.40;;;;;;;;;;5013619;28;20252;-73
2023/07/07 04:20:13;;;;;;;7.47;4.87;;;;;;;;;;5002448;28;20616;-73
2023/07/07 04:23:17;;;;;;;7.23;4.47;;;;;;;;;;5013456;28;20229;-73
2023/07/07 04:26:23;;;;;;;5.90;4.60;;;;;;;;;;5014684;28;20205;-73
2023/07/07 04:29:27;;;;;;;6.93;4.50;;;;;;;;;;5014441;28;20173;-73
2023/07/07 04:32:32;;;;;;;8.67;4.80;;;;;;;;;;5013376;28;20217;-73
2023/07/07 04:35:37;;;;;;;8.67;4.53;;;;;;;;;;5013087;28;20498;-72
2023/07/07 04:38:42;;;;;;;6.73;4.70;;;;;;;;;;5013509;28;20526;-73
2023/07/07 04:41:49;;;;;;;6.57;4.37;;;;;;;;;;5014402;28;20213;-73
2023/07/07 04:44:53;;;;;;;6.70;4.50;;;;;;;;;;5001994;28;20229;-73
2023/07/07 04:47:57;;;;;;;10.40;4.10;;;;;;;;;;5013927;28;20197;-72
2023/07/07 04:51:03;;;;;;;7.57;4.60;;;;;;;;;;5002106;28;20213;-73
2023/07/07 04:54:11;;;;;;;5.93;5.10;;;;;;;;;;5013783;28;20177;-73
2023/07/07 04:57:15;;;;;;;6.77;4.70;;;;;;;;;;5014072;28;20598;-72
2023/07/07 05:00:19;;;;;;;9.73;5.23;;;;;;;;;;5014251;28;20197;-72
2023/07/07 05:03:23;;;;;;;6.37;4.80;;;;;;;;;;5012995;28;20213;-73
2023/07/07 05:06:32;;;;;;;6.20;4.50;;;;;;;;;;5014292;28;20177;-73
2023/07/07 05:09:36;;;;;;;6.53;4.83;;;;;;;;;;5013972;28;20186;-73
2023/07/07 05:12:41;;;;;;;8.03;4.57;;;;;;;;;;5013333;28;20217;-73
2023/07/07 05:15:44;;;;;;;8.60;4.90;;;;;;;;;;5013965;28;20197;-73
2023/07/07 05:18:49;;;;;;;7.67;4.93;;;;;;;;;;5013466;28;20185;-73
2023/07/07 05:21:54;;;;;;;8.43;5.30;;;;;;;;;;5013795;28;20229;-73
2023/07/07 05:24:57;;;;;;;9.77;4.80;;;;;;;;;;5013096;28;20214;-74
2023/07/07 05:28:01;;;;;;;6.43;4.93;;;;;;;;;;5013653;28;20189;-73
2023/07/07 05:31:07;;;;;;;6.70;4.63;;;;;;;;;;5013025;28;20182;-73
2023/07/07 05:34:12;;;;;;;7.83;5.03;;;;;;;;;;5016451;28;20185;-73
2023/07/07 05:37:16;;;;;;;9.63;5.23;;;;;;;;;;5016887;28;20177;-73
2023/07/07 05:40:23;;;;;;;6.70;4.97;;;;;;;;;;5016544;28;20185;-73
2023/07/07 05:43:27;;;;;;;6.07;4.70;;;;;;;;;;5017292;28;20213;-73
2023/07/07 05:46:31;;;;;;;5.63;4.47;;;;;;;;;;5017883;28;20181;-73
2023/07/07 05:49:35;;;;;;;7.80;4.60;;;;;;;;;;5017395;28;20186;-72
2023/07/07 05:52:39;;;;;;;8.93;4.90;;;;;;;;;;5016245;28;20561;-74
2023/07/07 05:55:46;;;;;;;8.03;5.00;;;;;;;;;;5017269;28;20189;-74
2023/07/07 05:58:51;;;;;;;11.63;5.13;;;;;;;;;;5016100;28;20182;-73
2023/07/07 06:01:55;;;;;;;5.83;4.70;;;;;;;;;;5016673;28;20230;-73
2023/07/07 06:04:59;;;;;;;8.57;4.50;;;;;;;;;;5016965;28;20201;-73
2023/07/07 06:08:04;;;;;;;9.43;5.70;;;;;;;;;;5016468;28;20186;-73
2023/07/07 06:11:08;;;;;;;7.00;5.03;;;;;;;;;;5016000;28;20637;-73
2023/07/07 06:14:12;;;;;;;6.70;4.57;;;;;;;;;;5017201;28;20182;-73
2023/07/07 06:17:16;;;;;;;7.30;5.23;;;;;;;;;;5016453;28;20181;-73
2023/07/07 06:20:20;;;;;;;6.43;5.10;;;;;;;;;;5016009;28;20525;-73
2023/07/07 06:23:25;;;;;;;7.47;5.13;;;;;;;;;;5004352;28;20228;-73
2023/07/07 06:26:29;;;;;;;8.67;5.53;;;;;;;;;;5016630;28;20177;-73
2023/07/07 06:29:35;;;;;;;7.53;5.87;;;;;;;;;;5016722;28;20185;-73
2023/07/07 06:32:39;;;;;;;9.53;5.67;;;;;;;;;;5015708;28;20221;-74
2023/07/07 06:35:43;;;;;;;5.73;4.77;;;;;;;;;;5016334;28;20186;-74
2023/07/07 06:38:47;;;;;;;7.30;4.80;;;;;;;;;;5016506;28;20628;-74
2023/07/07 06:41:51;;;;;;;8.67;5.23;;;;;;;;;;5016094;28;20225;-74
2023/07/07 06:45:00;;;;;;;7.23;5.20;;;;;;;;;;5015276;28;20221;-74
2023/07/07 06:48:05;;;;;;;6.40;4.40;;;;;;;;;;5016502;28;20181;-74
2023/07/07 06:51:10;;;;;;;8.50;4.80;;;;;;;;;;5015339;28;20181;-73
2023/07/07 06:54:14;;;;;;;7.33;5.57;;;;;;;;;;5015832;28;20182;-73
2023/07/07 06:57:18;;;;;;;7.60;4.80;;;;;;;;;;5015964;28;20197;-74
2023/07/07 07:00:22;;;;;;;7.27;4.50;;;;;;;;;;5003926;28;20181;-73
2023/07/07 07:03:27;;;;;;;6.93;4.73;;;;;;;;;;5015595;28;20217;-73
2023/07/07 07:06:31;;;;;;;6.50;5.00;;;;;;;;;;5016085;28;20208;-72
2023/07/07 07:09:35;;;;;;;7.93;5.60;;;;;;;;;;5015767;28;20186;-72
2023/07/07 07:12:39;;;;;;;42.90;8.27;;;;;;;;;;5015485;28;20217;-72
2023/07/07 07:15:43;;;;;;;8.87;5.13;;;;;;;;;;5014578;28;20197;-73
2023/07/07 07:18:48;;;;;;;7.53;4.70;;;;;;;;;;5015945;28;20177;-72
2023/07/07 07:21:52;;;;;;;7.33;4.57;;;;;;;;;;5015587;28;20220;-73
2023/07/07 07:24:56;;;;;;;5.33;4.13;;;;;;;;;;5003180;28;20209;-73
2023/07/07 07:28:00;;;;;;;6.80;4.67;;;;;;;;;;5015391;28;20201;-73
2023/07/07 07:31:04;;;;;;;9.23;4.57;;;;;;;;;;5014951;28;20193;-72
2023/07/07 07:34:38;;;;;;;5.50;4.60;;;;;;;;;;5015489;28;20181;-73
2023/07/07 07:37:42;;;;;;;7.13;4.23;;;;;;;;;;5014925;28;20191;-73
2023/07/07 07:40:49;;;;;;;8.40;4.07;;;;;;;;;;5013995;28;20184;-72
2023/07/07 07:43:54;;;;;;;8.40;5.60;;;;;;;;;;5002721;28;20189;-72
2023/07/07 07:46:59;;;;;;;7.27;5.83;;;;;;;;;;5014684;28;20191;-73
2023/07/07 07:50:03;;;;;;;7.13;5.35;;;;;;;;;;5014895;28;20182;-73
2023/07/07 07:53:07;;;;;;;5.97;4.43;;;;;;;;;;5014581;28;20223;-73
2023/07/07 07:56:11;;;;;;;7.97;4.60;;;;;;;;;;5014408;28;20668;-73
2023/07/07 07:59:16;;;;;;;7.55;4.38;;;;;;;;;;5014659;28;20196;-73
2023/07/07 08:02:20;;;;;;;5.70;4.00;;;;;;;;;;5014102;28;20216;-73
2023/07/07 08:05:24;;;;;;;5.15;3.80;;;;;;;;;;5014844;28;20661;-73
2023/07/07 08:08:28;;;;;;;5.43;3.63;;;;;;;;;;5014665;28;20175;-73
2023/07/07 08:11:41;;;;;;;4.65;3.80;;;;;;;;;;5014483;28;20204;-73
2023/07/07 08:14:45;;;;;;;7.90;3.42;;;;;;;;;;5014259;28;20178;-74
2023/07/07 08:17:49;;;;;;;5.07;3.80;;;;;;;;;;5014484;28;20185;-73
2023/07/07 08:20:53;;;;;;;5.40;3.55;;;;;;;;;;5014203;28;20184;-74
2023/07/07 08:23:58;;;;;;;5.03;3.65;;;;;;;;;;5002302;28;20177;-74
2023/07/07 08:27:02;;;;;;;5.30;3.70;;;;;;;;;;5013782;28;20186;-74
2023/07/07 08:30:07;;;;;;;5.60;3.75;;;;;;;;;;5013340;28;20523;-74
2023/07/07 08:33:12;;;;;;;4.15;3.30;;;;;;;;;;5013999;28;20217;-74
2023/07/07 08:36:16;;;;;;;4.45;3.47;;;;;;;;;;5014091;28;20205;-74
2023/07/07 08:39:21;;;;;;;7.53;4.05;;;;;;;;;;5012984;28;20178;-74
2023/07/07 08:42:30;;;;;;;4.45;3.58;;;;;;;;;;5013800;28;20217;-74
2023/07/07 08:45:35;;;;;;;4.50;3.40;;;;;;;;;;5001990;28;20558;-74
2023/07/07 08:48:56;;;;;;;3.83;3.42;;;;;;;;;;5013925;28;20629;-75
2023/07/07 08:52:32;;;;;;;5.57;3.22;;;;;;;;;;5013107;28;20214;-74
2023/07/07 08:55:53;;;;;;;4.20;3.42;;;;;;;;;;5013162;28;20536;-74
2023/07/07 08:59:16;;;;;;;4.45;3.63;;;;;;;;;;5013700;28;20660;-74
2023/07/07 09:02:38;;;;;;;4.13;3.72;;;;;;;;;;5012977;28;20217;-74
2023/07/07 09:06:06;;;;;;;4.28;3.10;;;;;;;;;;5001565;28;20218;-74
2023/07/07 09:09:26;;;;;;;3.53;3.20;;;;;;;;;;5012617;28;20177;-74
2023/07/07 09:12:37;;;;;;;4.22;3.40;;;;;;;;;;5013354;28;20715;-72
2023/07/07 09:15:49;;;;;;;5.63;3.78;;;;;;;;;;5013435;28;20197;-74
2023/07/07 09:19:13;;;;;;;6.47;3.63;;;;;;;;;;5001971;28;20177;-73
2023/07/07 09:22:26;;;;;;;4.55;3.42;;;;;;;;;;4996294;23;20238;-72
2023/07/07 09:25:36;;;;;;;3.72;3.10;;;;;;;;;;4993745;28;20210;-71
2023/07/07 09:28:45;;;;;;;7.47;3.28;;;;;;;;;;4993543;28;20642;-71
2023/07/07 09:31:50;;;;;;;5.13;3.40;;;;;;;;;;4994040;28;20552;-73
2023/07/07 09:34:54;;;;;;;5.25;3.53;;;;;;;;;;4992881;28;20186;-72
2023/07/07 09:38:17;;;;;;;3.70;3.40;;;;;;;;;;4993955;28;20178;-71
2023/07/07 09:41:33;;;;;;;4.45;3.40;;;;;;;;;;4992666;28;20190;-71
2023/07/07 09:44:56;;;;;;;5.03;3.28;;;;;;;;;;4993643;28;20179;-72
2023/07/07 09:48:20;;;;;;;6.63;3.40;;;;;;;;;;4993596;28;20187;-72
2023/07/07 09:51:47;;;;;;;4.50;3.10;;;;;;;;;;4993754;28;20645;-72
2023/07/07 09:54:53;;;;;;;5.00;3.05;;;;;;;;;;4993311;28;20178;-72
2023/07/07 09:58:08;;;;;;;4.55;3.25;;;;;;;;;;4993475;28;20526;-72
2023/07/07 10:01:13;;;;;;;4.78;3.67;;;;;;;;;;4993595;28;20194;-72
2023/07/07 10:04:19;;;;;;;5.15;3.38;;;;;;;;;;4993294;28;20183;-72
2023/07/07 10:07:25;;;;;;;6.05;3.28;;;;;;;;;;4993123;28;20187;-72
2023/07/07 10:10:29;;;;;;;3.67;3.25;;;;;;;;;;4993820;28;20510;-71
2023/07/07 10:13:33;;;;;;;4.32;3.45;;;;;;;;;;4993013;28;20222;-73
2023/07/07 10:16:59;;;;;;;8.77;3.80;;;;;;;;;;4992316;28;20183;-72
2023/07/07 10:20:05;;;;;;;5.60;2.88;;;;;;;;;;4995943;28;20522;-72
2023/07/07 10:23:11;;;;;;;4.47;3.28;;;;;;;;;;4996632;28;20222;-71
2023/07/07 10:26:15;;;;;;;5.35;3.42;;;;;;;;;;4996071;28;20214;-71
2023/07/07 10:29:22;;;;;;;3.50;3.05;;;;;;;;;;4995807;28;20202;-71
2023/07/07 10:32:27;;;;;;;4.15;3.42;;;;;;;;;;4996686;28;20222;-71
2023/07/07 10:35:31;;;;;;;4.68;3.10;;;;;;;;;;4995915;28;20183;-71
2023/07/07 10:38:35;;;;;;;5.15;2.95;;;;;;;;;;4996709;28;20685;-71
2023/07/07 10:41:39;;;;;;;4.38;3.30;;;;;;;;;;4995802;28;20226;-71
2023/07/07 10:44:43;;;;;;;6.70;3.17;;;;;;;;;;4996356;28;20182;-72
2023/07/07 10:47:47;;;;;;;4.70;3.30;;;;;;;;;;4995736;28;20175;-71
2023/07/07 10:50:59;;;;;;;4.93;3.13;;;;;;;;;;4984745;28;20183;-72
2023/07/07 10:54:12;;;;;;;4.68;3.45;;;;;;;;;;4996973;28;20625;-72
2023/07/07 10:57:41;;;;;;;4.53;3.25;;;;;;;;;;4995522;28;20630;-72
2023/07/07 11:01:11;;;;;;;3.83;3.30;;;;;;;;;;4995533;28;20182;-72
2023/07/07 11:04:28;;;;;;;3.50;3.20;;;;;;;;;;4995619;28;20182;-72
2023/07/07 11:07:49;;;;;;;3.63;3.13;;;;;;;;;;4995231;28;20179;-72
2023/07/07 11:11:20;;;;;;;4.03;3.30;;;;;;;;;;4996137;28;20531;-72
2023/07/07 11:14:41;;;;;;;3.17;2.88;;;;;;;;;;4995933;28;20519;-72
2023/07/07 11:18:17;;;;;;;4.20;3.50;;;;;;;;;;4996285;28;20532;-72
2023/07/07 11:21:40;;;;;;;4.13;3.50;;;;;;;;;;4995484;28;20174;-72
2023/07/07 11:24:56;;;;;;;3.08;2.78;;;;;;;;;;4995887;28;20516;-72
2023/07/07 11:28:41;;;;;;;4.72;3.38;;;;;;;;;;4995674;28;20175;-71
2023/07/07 11:32:04;;;;;;;3.15;2.70;;;;;;;;;;4980394;28;20218;-72
2023/07/07 11:35:16;;;;;;;4.90;3.30;;;;;;;;;;4995965;28;20514;-72
2023/07/07 11:38:36;;;;;;;33.88;24.67;;;;;;;;;;4994789;28;20182;-72
2023/07/07 11:41:53;;;;;;;7.00;3.50;;;;;;;;;;4995441;28;20230;-72
2023/07/07 11:45:27;;;;;;;4.22;3.40;;;;;;;;;;4994687;28;20195;-72
2023/07/07 11:49:04;;;;;;;4.63;3.40;;;;;;;;;;4995206;28;20182;-72
2023/07/07 11:52:16;;;;;;;3.88;3.10;;;;;;;;;;4958079;28;20218;-72
2023/07/07 11:55:47;;;;;;;3.90;3.03;;;;;;;;;;4994166;28;20187;-72
2023/07/07 11:59:11;;;;;;;5.65;3.60;;;;;;;;;;4994898;28;20178;-71
2023/07/07 12:02:23;;;;;;;4.32;3.30;;;;;;;;;;4994816;28;20219;-71
2023/07/07 12:05:32;;;;;;;6.28;3.30;;;;;;;;;;4995113;28;20183;-72
2023/07/07 12:08:45;;;;;;;5.35;3.38;;;;;;;;;;4994260;28;20170;-72
2023/07/07 12:11:59;;;;;;;6.50;3.60;;;;;;;;;;4995103;28;20219;-72
2023/07/07 12:15:17;;;;;;;3.67;3.38;;;;;;;;;;4994959;28;20179;-72
2023/07/07 12:18:25;;;;;;;4.30;3.72;;;;;;;;;;4995139;28;20179;-72
2023/07/07 12:21:33;;;;;;;3.40;3.10;;;;;;;;;;4994645;28;20190;-72
2023/07/07 12:24:49;;;;;;;5.25;3.25;;;;;;;;;;4994737;28;20182;-72
2023/07/07 12:27:54;;;;;;;4.47;3.33;;;;;;;;;;4994693;28;20175;-72
2023/07/07 12:30:58;;;;;;;6.47;3.58;;;;;;;;;;4994634;28;20186;-72
2023/07/07 12:34:36;;;;;;;4.78;3.72;;;;;;;;;;4994579;28;20179;-72
2023/07/07 12:37:41;;;;;;;4.43;3.45;;;;;;;;;;4994486;28;20194;-72
2023/07/07 12:40:45;;;;;;;6.30;3.33;;;;;;;;;;4994205;28;20536;-72
2023/07/07 12:43:57;;;;;;;4.15;3.53;;;;;;;;;;4993269;28;20545;-72
2023/07/07 12:47:28;;;;;;;6.13;3.67;;;;;;;;;;4993543;28;20218;-72
2023/07/07 12:50:39;;;;;;;5.95;3.55;;;;;;;;;;4994232;28;20541;-72
2023/07/07 12:53:46;;;;;;;4.53;3.53;;;;;;;;;;4994256;28;20186;-72
2023/07/07 12:57:09;;;;;;;5.43;3.83;;;;;;;;;;4994454;28;20657;-72
2023/07/07 13:00:31;;;;;;;4.32;3.83;;;;;;;;;;4994248;28;20571;-72
2023/07/07 13:03:44;;;;;;;5.90;4.45;;;;;;;;;;4994067;28;20218;-72
2023/07/07 13:06:52;;;;;;;5.60;4.32;;;;;;;;;;4994229;28;20211;-72
2023/07/07 13:09:56;;;;;;;4.93;4.25;;;;;;;;;;4994157;28;20174;-72
2023/07/07 13:13:25;;;;;;;5.35;4.72;;;;;;;;;;4993813;28;20209;-72
2023/07/07 13:16:29;;;;;;;4.93;4.35;;;;;;;;;;4993777;28;20174;-72
2023/07/07 13:19:35;;;;;;;6.35;3.80;;;;;;;;;;4993207;28;20179;-72
2023/07/07 13:22:50;;;;;;;7.75;3.90;;;;;;;;;;4993710;28;20226;-72
2023/07/07 13:25:54;;;;;;;4.95;4.18;;;;;;;;;;4993831;28;20190;-72
2023/07/07 13:29:05;;;;;;;6.65;4.15;;;;;;;;;;4993898;28;20198;-72
2023/07/07 13:32:26;;;;;;;4.95;3.92;;;;;;;;;;4993898;28;20218;-72
2023/07/07 13:35:30;;;;;;;7.22;4.70;;;;;;;;;;4993705;28;20186;-72
2023/07/07 13:38:47;;;;;;;5.35;4.63;;;;;;;;;;4993756;28;20194;-72
2023/07/07 13:41:51;;;;;;;5.78;4.63;;;;;;;;;;4993197;28;20214;-71
2023/07/07 13:44:56;;;;;;;7.97;5.18;;;;;;;;;;4993698;28;20206;-71
2023/07/07 13:48:08;;;;;;;5.03;4.53;;;;;;;;;;4970267;28;20222;-71
2023/07/07 13:51:21;;;;;;;6.70;4.57;;;;;;;;;;4992875;28;20194;-71
2023/07/07 13:54:25;;;;;;;5.40;4.30;;;;;;;;;;4995426;28;20190;-72
2023/07/07 13:57:32;;;;;;;6.20;4.38;;;;;;;;;;4997458;28;20178;-71
2023/07/07 14:00:37;;;;;;;9.32;5.20;;;;;;;;;;4997818;28;20182;-71
2023/07/07 14:03:46;;;;;;;6.55;4.80;;;;;;;;;;4997588;28;20538;-71
2023/07/07 14:06:50;;;;;;;5.30;4.78;;;;;;;;;;4996953;28;20222;-71
2023/07/07 14:09:55;;;;;;;10.13;4.70;;;;;;;;;;4997066;28;20179;-71
2023/07/07 14:12:59;;;;;;;5.63;4.50;;;;;;;;;;4997170;28;20735;-72
2023/07/07 14:16:10;;;;;;;6.13;5.05;;;;;;;;;;4997489;28;20511;-72
2023/07/07 14:19:30;;;;;;;5.72;5.10;;;;;;;;;;4996903;28;20182;-72
2023/07/07 14:22:34;;;;;;;6.25;5.32;;;;;;;;;;4996021;28;20226;-71
2023/07/07 14:25:44;;;;;;;6.28;5.18;;;;;;;;;;4996687;28;20198;-72
2023/07/07 14:28:51;;;;;;;7.47;5.55;;;;;;;;;;4996806;28;20179;-71
2023/07/07 14:32:05;;;;;;;6.57;5.20;;;;;;;;;;4996281;28;20218;-71
2023/07/07 14:35:19;;;;;;;5.50;5.00;;;;;;;;;;4996768;28;20190;-72
2023/07/07 14:38:24;;;;;;;8.23;5.80;;;;;;;;;;4996807;28;20183;-72
2023/07/07 14:41:33;;;;;;;7.15;5.40;;;;;;;;;;4996623;28;20174;-71
2023/07/07 14:44:44;;;;;;;6.45;5.57;;;;;;;;;;4996879;28;20187;-72
2023/07/07 14:47:49;;;;;;;9.40;5.40;;;;;;;;;;4996769;28;20210;-71
2023/07/07 14:50:54;;;;;;;6.70;5.78;;;;;;;;;;4995510;28;20199;-71
2023/07/07 14:54:00;;;;;;;6.43;5.45;;;;;;;;;;4996687;28;20186;-71
2023/07/07 14:57:14;;;;;;;5.85;4.97;;;;;;;;;;4996180;28;20183;-72
2023/07/07 15:00:43;;;;;;;5.78;4.93;;;;;;;;;;4995896;28;20179;-72
2023/07/07 15:03:48;;;;;;;5.72;4.60;;;;;;;;;;4996638;28;20186;-71
2023/07/07 15:06:52;;;;;;;5.90;5.30;;;;;;;;;;4994429;28;20215;-72
2023/07/07 15:09:59;;;;;;;5.75;5.20;;;;;;;;;;4993815;28;20186;-72
2023/07/07 15:13:03;;;;;;;6.10;5.47;;;;;;;;;;4994630;28;20214;-72
2023/07/07 15:16:12;;;;;;;6.63;5.30;;;;;;;;;;4994064;28;20190;-72
2023/07/07 15:19:19;;;;;;;6.18;5.30;;;;;;;;;;4993721;28;20187;-72
2023/07/07 15:22:23;;;;;;;7.32;5.05;;;;;;;;;;4994118;28;20233;-72
2023/07/07 15:25:28;;;;;;;8.73;5.55;;;;;;;;;;4994947;28;20519;-72
2023/07/07 15:28:32;;;;;;;7.28;4.90;;;;;;;;;;4992610;28;20677;-72
2023/07/07 15:31:36;;;;;;;6.25;5.38;;;;;;;;;;4993109;28;20566;-72
2023/07/07 15:34:40;;;;;;;5.80;4.75;;;;;;;;;;5022023;23;20234;-71
2023/07/07 15:37:48;;;;;;;5.97;5.35;;;;;;;;;;5002274;28;20185;-71
2023/07/07 15:40:52;;;;;;;5.60;4.97;;;;;;;;;;5011858;28;20194;-71
2023/07/07 15:43:57;;;;;;;5.65;4.93;;;;;;;;;;4995728;28;20186;-71
2023/07/07 15:47:01;;;;;;;5.93;5.13;;;;;;;;;;4993971;28;20206;-71
2023/07/07 15:50:14;;;;;;;6.72;5.45;;;;;;;;;;4990911;28;20182;-74
2023/07/07 15:53:18;;;;;;;6.63;5.45;;;;;;;;;;4995949;28;20218;-75
2023/07/07 15:56:25;;;;;;;13.68;5.40;;;;;;;;;;4995127;28;20198;-75
2023/07/07 15:59:29;;;;;;;6.30;5.18;;;;;;;;;;4983758;28;20187;-75
2023/07/07 16:02:34;;;;;;;6.25;5.00;;;;;;;;;;4995501;28;20218;-75
2023/07/07 16:05:39;;;;;;;7.22;4.95;;;;;;;;;;4994465;28;20661;-74
2023/07/07 16:08:43;;;;;;;7.30;4.90;;;;;;;;;;4995546;28;20556;-73
2023/07/07 16:11:47;;;;;;;6.90;5.18;;;;;;;;;;4994448;28;20218;-75
2023/07/07 16:14:51;;;;;;;9.57;5.07;;;;;;;;;;4993909;28;20194;-73
2023/07/07 16:17:55;;;;;;;6.22;5.10;;;;;;;;;;4994597;28;20653;-73
2023/07/07 16:21:00;;;;;;;6.97;5.20;;;;;;;;;;4994764;28;20186;-73
2023/07/07 16:24:04;;;;;;;7.45;4.93;;;;;;;;;;4994361;28;20182;-73
2023/07/07 16:27:17;;;;;;;9.38;5.32;;;;;;;;;;4994700;28;20201;-74
2023/07/07 16:30:27;;;;;;;6.45;4.93;;;;;;;;;;4993954;28;20186;-74
2023/07/07 16:33:32;;;;;;;7.68;5.05;;;;;;;;;;4994032;28;20225;-74
2023/07/07 16:36:36;;;;;;;9.85;5.38;;;;;;;;;;4994773;28;20185;-76
2023/07/07 16:39:40;;;;;;;7.03;5.43;;;;;;;;;;4982678;28;20645;-74
2023/07/07 16:42:44;;;;;;;7.97;4.90;;;;;;;;;;4993338;28;20219;-73
2023/07/07 16:45:48;;;;;;;6.93;5.35;;;;;;;;;;4994663;28;20179;-74
2023/07/07 16:48:53;;;;;;;8.48;5.65;;;;;;;;;;4994564;28;20541;-74
2023/07/07 16:51:57;;;;;;;6.85;5.30;;;;;;;;;;4993748;28;20226;-74
2023/07/07 16:55:01;;;;;;;7.55;5.47;;;;;;;;;;4993961;28;20188;-74
2023/07/07 16:58:07;;;;;;;9.02;5.90;;;;;;;;;;4993677;28;20189;-74
2023/07/07 17:01:13;;;;;;;6.93;5.32;;;;;;;;;;4992126;28;20192;-74
2023/07/07 17:04:17;;;;;;;6.47;5.40;;;;;;;;;;4994504;28;20180;-74
2023/07/07 17:07:21;;;;;;;11.38;5.65;;;;;;;;;;4992983;28;20213;-74
2023/07/07 17:10:40;;;;;;;6.50;5.15;;;;;;;;;;4993181;28;20192;-73
2023/07/07 17:13:44;;;;;;;7.35;5.85;;;;;;;;;;4982077;28;20192;-73
2023/07/07 17:16:48;;;;;;;7.80;5.82;;;;;;;;;;4993159;28;20177;-74
2023/07/07 17:19:52;;;;;;;10.00;5.88;;;;;;;;;;4982065;28;20535;-74
2023/07/07 17:22:58;;;;;;;8.55;5.18;;;;;;;;;;4993036;28;20327;-73
2023/07/07 17:26:02;;;;;;;7.80;5.70;;;;;;;;;;4993276;28;20205;-73
2023/07/07 17:29:11;;;;;;;6.40;5.28;;;;;;;;;;4994458;28;20693;-73
2023/07/07 17:32:16;;;;;;;7.20;5.43;;;;;;;;;;4997236;28;20224;-73
2023/07/07 17:35:22;;;;;;;9.02;5.70;;;;;;;;;;4996718;28;20199;-73
2023/07/07 17:38:26;;;;;;;8.38;5.57;;;;;;;;;;4996976;28;20173;-73
2023/07/07 17:41:30;;;;;;;8.68;5.55;;;;;;;;;;4997695;28;20184;-73
2023/07/07 17:44:34;;;;;;;6.85;5.63;;;;;;;;;;4997599;28;20203;-75
2023/07/07 17:47:39;;;;;;;7.97;5.40;;;;;;;;;;4997802;28;20555;-74
2023/07/07 17:50:47;;;;;;;6.38;5.13;;;;;;;;;;4997453;28;20201;-74
2023/07/07 17:53:52;;;;;;;7.95;5.18;;;;;;;;;;4996753;28;20174;-74
2023/07/07 17:56:56;;;;;;;7.60;5.15;;;;;;;;;;4996579;28;20190;-77
2023/07/07 18:00:00;;;;;;;7.32;5.47;;;;;;;;;;4996521;28;20627;-74
2023/07/07 18:03:04;;;;;;;7.05;5.30;;;;;;;;;;4985406;28;20223;-74
2023/07/07 18:06:15;;;;;;;19.35;6.43;;;;;;;;;;4997046;28;20183;-73
2023/07/07 18:09:20;;;;;;;6.38;5.13;;;;;;;;;;4996841;28;20729;-74
2023/07/07 18:12:24;;;;;;;7.50;5.95;;;;;;;;;;4997223;28;20691;-73
2023/07/07 18:15:28;;;;;;;7.43;5.50;;;;;;;;;;4997347;28;20188;-73
2023/07/07 18:18:32;;;;;;;12.55;6.90;;;;;;;;;;4996366;28;20185;-73
2023/07/07 18:21:37;;;;;;;9.43;5.63;;;;;;;;;;4996542;28;20705;-73
2023/07/07 18:24:41;;;;;;;6.80;5.88;;;;;;;;;;4997148;28;20186;-73
2023/07/07 18:27:45;;;;;;;11.80;5.85;;;;;;;;;;4996195;28;20217;-73
2023/07/07 18:30:54;;;;;;;7.28;5.40;;;;;;;;;;4993366;28;20197;-73
2023/07/07 18:33:59;;;;;;;8.43;5.60;;;;;;;;;;4996439;28;20200;-74
2023/07/07 18:37:09;;;;;;;7.55;5.35;;;;;;;;;;4995277;28;20208;-74
2023/07/07 18:40:19;;;;;;;7.80;5.77;;;;;;;;;;4993741;28;20642;-73
2023/07/07 18:43:24;;;;;;;11.23;5.60;;;;;;;;;;4984576;28;20213;-73
2023/07/07 18:46:28;;;;;;;10.93;5.50;;;;;;;;;;4996857;28;20191;-73
2023/07/07 18:49:32;;;;;;;9.77;5.47;;;;;;;;;;4995447;28;20224;-73